Terminal Aerodrome Forecast
Issued by NWS Charleston, SC

Home | Current Version | Previous Version | Text Only | Print | Product List | Glossary On
Versions: 1 2 3 4 5 6 7 8 9 10 11 12 13 14 15 16 17 18 19 20 21 22 23 24 25 26 27
000
FTUS42 KCHS 260500
TAFSAV
TAF
KSAV 260527Z 2606/2706 22008KT P6SM SCT035 BKN250
     FM261400 28014G21KT P6SM SCT035
     FM261700 28018G28KT P6SM BKN040
     FM270000 29014G22KT P6SM FEW050=

USA.gov is the U.S. government's official web portal to all federal, state and local government web resources and services.